Time,TemperatureF,DewpointF,PressureIn,WindDirection,WindDirectionDegrees,WindSpeedMPH,WindSpeedGustMPH,Humidity,HourlyPrecipIn,Conditions,Clouds,dailyrainin,SoftwareType,DateUTC
2013-06-22 00:00:00,72.0,66.6,30.19,NE,45,0.7,1.6,83,0.00,,,0.00,meteobridge,2013-06-22 04:00:00,
2013-06-22 00:01:00,72.0,66.6,30.19,NE,45,2.2,2.2,83,0.00,,,0.00,meteobridge,2013-06-22 04:01:00,
2013-06-22 00:02:00,72.0,66.6,30.19,NE,45,1.6,2.2,83,0.00,,,0.00,meteobridge,2013-06-22 04:02:00,
2013-06-22 00:03:00,71.8,66.4,30.19,NE,45,1.6,1.6,83,0.00,,,0.00,meteobridge,2013-06-22 04:03:00,
2013-06-22 00:09:00,71.6,66.6,30.19,ESE,113,1.6,1.6,84,0.00,,,0.00,meteobridge,2013-06-22 04:09:00,
2013-06-22 00:14:00,71.4,67.1,30.19,East,90,1.6,2.2,86,0.00,,,0.00,meteobridge,2013-06-22 04:14:00,
2013-06-22 00:19:00,71.1,66.9,30.19,NE,45,0.7,1.6,87,0.00,,,0.00,meteobridge,2013-06-22 04:19:00,
2013-06-22 00:24:00,71.1,66.9,30.19,NE,45,0.7,2.2,87,0.00,,,0.00,meteobridge,2013-06-22 04:24:00,
2013-06-22 00:29:00,71.1,67.3,30.19,SE,135,0.7,0.7,88,0.00,,,0.00,meteobridge,2013-06-22 04:29:00,
2013-06-22 00:34:00,70.9,67.1,30.19,North,0,0.7,0.7,88,0.00,,,0.00,meteobridge,2013-06-22 04:34:00,
2013-06-22 00:40:00,70.9,67.5,30.19,North,0,0.0,1.6,89,0.00,,,0.00,meteobridge,2013-06-22 04:40:00,
2013-06-22 00:45:00,70.9,67.5,30.19,NE,45,1.6,1.6,89,0.00,,,0.00,meteobridge,2013-06-22 04:45:00,
2013-06-22 00:50:00,71.1,68.0,30.20,East,90,3.1,3.1,90,0.00,,,0.00,meteobridge,2013-06-22 04:50:00,
2013-06-22 00:55:00,71.1,68.0,30.20,NE,45,2.2,2.2,90,0.00,,,0.00,meteobridge,2013-06-22 04:55:00,
2013-06-22 01:00:00,71.1,68.4,30.19,SE,135,1.6,1.6,91,0.00,,,0.00,meteobridge,2013-06-22 05:00:00,
2013-06-22 01:05:00,71.1,68.0,30.19,SE,135,2.2,2.2,90,0.00,,,0.00,meteobridge,2013-06-22 05:05:00,
2013-06-22 01:11:00,71.1,68.4,30.20,North,0,1.6,1.6,91,0.00,,,0.00,meteobridge,2013-06-22 05:11:00,
2013-06-22 01:16:00,71.4,68.9,30.19,North,0,1.6,5.4,92,0.00,,,0.00,meteobridge,2013-06-22 05:16:00,
2013-06-22 01:21:00,71.4,68.9,30.19,East,90,2.2,3.1,92,0.00,,,0.00,meteobridge,2013-06-22 05:21:00,
2013-06-22 01:26:00,71.4,68.9,30.19,NE,45,0.7,0.7,92,0.00,,,0.00,meteobridge,2013-06-22 05:26:00,
2013-06-22 01:31:00,71.4,68.9,30.19,SE,135,2.2,2.2,92,0.00,,,0.00,meteobridge,2013-06-22 05:31:00,
2013-06-22 01:36:00,71.4,68.9,30.20,North,0,1.6,1.6,92,0.00,,,0.00,meteobridge,2013-06-22 05:36:00,
2013-06-22 01:42:00,71.4,69.3,30.19,NW,315,4.5,4.5,93,0.00,,,0.00,meteobridge,2013-06-22 05:42:00,
2013-06-22 01:47:00,71.8,69.3,30.19,North,0,4.5,5.4,92,0.00,,,0.00,meteobridge,2013-06-22 05:47:00,
2013-06-22 01:52:00,72.0,69.4,30.19,NNE,23,5.4,5.4,92,0.00,,,0.00,meteobridge,2013-06-22 05:52:00,
2013-06-22 01:57:00,72.0,69.3,30.19,NE,45,3.1,4.5,91,0.00,,,0.00,meteobridge,2013-06-22 05:57:00,
2013-06-22 02:02:00,72.0,69.3,30.20,North,0,4.5,6.0,91,0.00,,,0.00,meteobridge,2013-06-22 06:02:00,
2013-06-22 02:07:00,72.0,69.3,30.20,North,0,3.8,3.8,91,0.00,,,0.00,meteobridge,2013-06-22 06:07:00,
2013-06-22 02:13:00,72.1,69.6,30.20,North,0,9.2,9.2,92,0.00,,,0.00,meteobridge,2013-06-22 06:13:00,
2013-06-22 02:18:00,72.3,69.8,30.19,North,0,6.9,7.6,92,0.00,,,0.00,meteobridge,2013-06-22 06:18:00,
2013-06-22 02:23:00,72.3,69.8,30.19,North,0,3.8,6.9,92,0.00,,,0.00,meteobridge,2013-06-22 06:23:00,
2013-06-22 02:28:00,72.5,70.0,30.19,ENE,68,5.4,6.0,92,0.00,,,0.00,meteobridge,2013-06-22 06:28:00,
2013-06-22 02:33:00,72.5,70.0,30.18,North,0,5.4,7.6,92,0.00,,,0.00,meteobridge,2013-06-22 06:33:00,
2013-06-22 02:38:00,72.7,70.2,30.18,North,0,6.9,6.9,92,0.00,,,0.00,meteobridge,2013-06-22 06:38:00,
2013-06-22 02:44:00,72.7,70.2,30.19,East,90,6.0,6.0,92,0.00,,,0.00,meteobridge,2013-06-22 06:44:00,
2013-06-22 02:49:00,72.5,69.8,30.18,North,0,4.5,6.0,91,0.00,,,0.00,meteobridge,2013-06-22 06:49:00,
2013-06-22 02:54:00,72.5,69.8,30.18,North,0,3.8,6.9,91,0.00,,,0.00,meteobridge,2013-06-22 06:54:00,
2013-06-22 02:59:00,72.3,69.6,30.18,NE,45,2.2,3.8,91,0.00,,,0.00,meteobridge,2013-06-22 06:59:00,
2013-06-22 03:04:00,72.5,69.8,30.18,North,0,4.5,5.4,91,0.00,,,0.00,meteobridge,2013-06-22 07:04:00,
2013-06-22 03:09:00,72.3,69.6,30.18,North,0,3.1,4.5,91,0.00,,,0.00,meteobridge,2013-06-22 07:09:00,
2013-06-22 03:15:00,72.3,69.8,30.18,North,0,7.6,7.6,92,0.00,,,0.00,meteobridge,2013-06-22 07:15:00,
2013-06-22 03:20:00,72.5,70.0,30.18,North,0,7.6,7.6,92,0.00,,,0.00,meteobridge,2013-06-22 07:20:00,
2013-06-22 03:25:00,72.7,70.2,30.18,NW,315,6.0,7.6,92,0.00,,,0.00,meteobridge,2013-06-22 07:25:00,
2013-06-22 03:30:00,72.5,70.0,30.18,NNW,338,8.3,8.3,92,0.00,,,0.00,meteobridge,2013-06-22 07:30:00,
2013-06-22 03:35:00,72.3,69.8,30.18,North,0,8.3,8.3,92,0.00,,,0.00,meteobridge,2013-06-22 07:35:00,
2013-06-22 03:40:00,72.3,69.8,30.18,North,0,9.2,9.2,92,0.00,,,0.00,meteobridge,2013-06-22 07:40:00,
2013-06-22 03:46:00,72.1,69.6,30.18,NW,315,3.1,6.9,92,0.00,,,0.00,meteobridge,2013-06-22 07:46:00,
2013-06-22 03:51:00,72.1,69.6,30.18,NE,45,8.3,8.3,92,0.00,,,0.00,meteobridge,2013-06-22 07:51:00,
2013-06-22 03:56:00,72.0,69.4,30.18,East,90,3.1,8.3,92,0.00,,,0.00,meteobridge,2013-06-22 07:56:00,
2013-06-22 04:01:00,72.0,69.4,30.18,NE,45,7.6,7.6,92,0.00,,,0.00,meteobridge,2013-06-22 08:01:00,
2013-06-22 04:06:00,72.0,69.4,30.18,NE,45,2.2,4.5,92,0.00,,,0.00,meteobridge,2013-06-22 08:06:00,
2013-06-22 04:11:00,72.1,69.6,30.17,NNE,23,7.6,7.6,92,0.00,,,0.00,meteobridge,2013-06-22 08:11:00,
2013-06-22 04:17:00,72.3,70.2,30.18,North,0,5.4,8.3,93,0.00,,,0.00,meteobridge,2013-06-22 08:17:00,
2013-06-22 04:22:00,72.3,69.8,30.18,North,0,6.0,6.9,92,0.00,,,0.00,meteobridge,2013-06-22 08:22:00,
2013-06-22 04:27:00,72.3,69.8,30.18,North,0,9.8,9.8,92,0.00,,,0.00,meteobridge,2013-06-22 08:27:00,
2013-06-22 04:32:00,72.5,70.0,30.18,NW,315,6.9,8.3,92,0.00,,,0.00,meteobridge,2013-06-22 08:32:00,
2013-06-22 04:37:00,72.5,70.3,30.17,NNW,338,10.7,10.7,93,0.00,,,0.00,meteobridge,2013-06-22 08:37:00,
2013-06-22 04:42:00,72.5,70.3,30.17,NW,315,9.8,11.4,93,0.00,,,0.00,meteobridge,2013-06-22 08:42:00,
2013-06-22 04:47:00,72.7,70.5,30.17,North,0,9.8,9.8,93,0.00,,,0.00,meteobridge,2013-06-22 08:47:00,
2013-06-22 04:53:00,72.7,70.2,30.18,North,0,11.4,11.4,92,0.00,,,0.00,meteobridge,2013-06-22 08:53:00,
2013-06-22 04:58:00,72.7,70.2,30.17,NW,315,8.3,9.8,92,0.00,,,0.00,meteobridge,2013-06-22 08:58:00,
2013-06-22 05:03:00,72.7,70.2,30.18,North,0,7.6,9.8,92,0.00,,,0.00,meteobridge,2013-06-22 09:03:00,
2013-06-22 05:08:00,72.7,70.2,30.18,North,0,8.3,8.3,92,0.00,,,0.00,meteobridge,2013-06-22 09:08:00,
2013-06-22 05:13:00,72.7,70.2,30.18,North,0,9.2,9.2,92,0.00,,,0.00,meteobridge,2013-06-22 09:13:00,
2013-06-22 05:18:00,72.7,70.2,30.18,North,0,9.2,10.7,92,0.00,,,0.00,meteobridge,2013-06-22 09:18:00,
2013-06-22 05:24:00,72.7,70.2,30.18,North,0,6.9,7.6,92,0.00,,,0.00,meteobridge,2013-06-22 09:24:00,
2013-06-22 05:29:00,72.7,70.2,30.18,NNE,23,8.3,9.2,92,0.00,,,0.00,meteobridge,2013-06-22 09:29:00,
2013-06-22 05:34:00,72.7,70.2,30.18,North,0,8.3,9.2,92,0.00,,,0.00,meteobridge,2013-06-22 09:34:00,
2013-06-22 05:39:00,72.5,70.0,30.19,North,0,10.7,10.7,92,0.00,,,0.00,meteobridge,2013-06-22 09:39:00,
2013-06-22 05:44:00,72.5,70.0,30.19,NW,315,10.7,11.4,92,0.00,,,0.00,meteobridge,2013-06-22 09:44:00,
2013-06-22 05:49:00,72.5,70.0,30.19,North,0,10.7,10.7,92,0.00,,,0.00,meteobridge,2013-06-22 09:49:00,
2013-06-22 05:55:00,72.5,70.3,30.19,North,0,9.8,12.1,93,0.00,,,0.00,meteobridge,2013-06-22 09:55:00,
2013-06-22 06:00:00,72.5,70.0,30.19,WNW,293,9.8,13.0,92,0.00,,,0.00,meteobridge,2013-06-22 10:00:00,
2013-06-22 06:05:00,72.3,69.8,30.19,North,0,12.1,13.0,92,0.00,,,0.00,meteobridge,2013-06-22 10:05:00,
2013-06-22 06:10:00,72.1,69.6,30.19,NW,315,13.0,13.0,92,0.00,,,0.00,meteobridge,2013-06-22 10:10:00,
2013-06-22 06:15:00,72.1,70.0,30.19,North,0,9.8,9.8,93,0.00,,,0.00,meteobridge,2013-06-22 10:15:00,
2013-06-22 06:20:00,72.1,69.6,30.19,North,0,9.2,9.8,92,0.00,,,0.00,meteobridge,2013-06-22 10:20:00,
2013-06-22 06:26:00,72.1,69.6,30.20,NW,315,9.2,9.8,92,0.00,,,0.00,meteobridge,2013-06-22 10:26:00,
2013-06-22 06:31:00,72.1,69.6,30.20,North,0,9.8,11.4,92,0.00,,,0.00,meteobridge,2013-06-22 10:31:00,
2013-06-22 06:36:00,72.1,69.6,30.20,North,0,11.4,11.4,92,0.00,,,0.00,meteobridge,2013-06-22 10:36:00,
2013-06-22 06:41:00,72.0,69.4,30.21,North,0,7.6,7.6,92,0.00,,,0.00,meteobridge,2013-06-22 10:41:00,
2013-06-22 06:46:00,72.0,69.8,30.20,North,0,11.4,11.4,93,0.00,,,0.00,meteobridge,2013-06-22 10:46:00,
2013-06-22 06:51:00,71.8,69.6,30.20,North,0,7.6,9.2,93,0.00,,,0.00,meteobridge,2013-06-22 10:51:00,
2013-06-22 06:57:00,71.8,69.3,30.20,North,0,6.9,14.5,92,0.00,,,0.00,meteobridge,2013-06-22 10:57:00,
2013-06-22 07:02:00,71.8,69.3,30.20,North,0,5.4,9.8,92,0.00,,,0.00,meteobridge,2013-06-22 11:02:00,
2013-06-22 07:07:00,72.0,69.4,30.20,North,0,7.6,9.2,92,0.00,,,0.00,meteobridge,2013-06-22 11:07:00,
2013-06-22 07:12:00,72.0,69.4,30.20,North,0,7.6,8.3,92,0.00,,,0.00,meteobridge,2013-06-22 11:12:00,
2013-06-22 07:17:00,71.8,69.3,30.20,North,0,9.2,10.7,92,0.00,,,0.00,meteobridge,2013-06-22 11:17:00,
2013-06-22 07:22:00,72.0,69.4,30.20,North,0,10.7,10.7,92,0.00,,,0.00,meteobridge,2013-06-22 11:22:00,
2013-06-22 07:28:00,72.0,69.4,30.20,North,0,8.3,9.2,92,0.00,,,0.00,meteobridge,2013-06-22 11:28:00,
2013-06-22 07:33:00,72.1,69.6,30.20,North,0,13.0,13.0,92,0.00,,,0.00,meteobridge,2013-06-22 11:33:00,
2013-06-22 07:38:00,72.1,69.6,30.20,NE,45,4.5,8.3,92,0.00,,,0.00,meteobridge,2013-06-22 11:38:00,
2013-06-22 07:43:00,72.1,69.6,30.19,NE,45,9.8,14.5,92,0.00,,,0.00,meteobridge,2013-06-22 11:43:00,
2013-06-22 07:48:00,72.1,69.4,30.19,North,0,9.2,9.8,91,0.00,,,0.00,meteobridge,2013-06-22 11:48:00,
2013-06-22 07:54:00,72.1,69.6,30.20,NNE,23,9.8,12.1,92,0.00,,,0.00,meteobridge,2013-06-22 11:54:00,
2013-06-22 07:59:00,72.1,69.6,30.19,North,0,15.2,15.2,92,0.00,,,0.00,meteobridge,2013-06-22 11:59:00,
2013-06-22 08:04:00,72.3,69.6,30.19,North,0,9.2,11.4,91,0.00,,,0.00,meteobridge,2013-06-22 12:04:00,
2013-06-22 08:09:00,72.5,70.0,30.19,North,0,6.9,9.8,92,0.00,,,0.00,meteobridge,2013-06-22 12:09:00,
2013-06-22 08:14:00,72.7,70.0,30.20,North,0,6.9,6.9,91,0.00,,,0.00,meteobridge,2013-06-22 12:14:00,
2013-06-22 08:19:00,72.9,70.2,30.20,North,0,7.6,8.3,91,0.00,,,0.00,meteobridge,2013-06-22 12:19:00,
2013-06-22 08:25:00,72.9,70.2,30.19,North,0,9.2,9.2,91,0.00,,,0.00,meteobridge,2013-06-22 12:25:00,
2013-06-22 08:30:00,72.7,70.0,30.20,North,0,6.9,9.2,91,0.00,,,0.00,meteobridge,2013-06-22 12:30:00,
2013-06-22 08:35:00,72.7,70.0,30.20,North,0,9.2,11.4,91,0.00,,,0.00,meteobridge,2013-06-22 12:35:00,
2013-06-22 08:40:00,72.9,70.2,30.20,North,0,9.2,10.7,91,0.00,,,0.00,meteobridge,2013-06-22 12:40:00,
2013-06-22 08:45:00,73.2,70.5,30.20,North,0,8.3,12.1,91,0.00,,,0.00,meteobridge,2013-06-22 12:45:00,
2013-06-22 08:50:00,73.2,70.2,30.20,North,0,9.2,9.2,90,0.00,,,0.00,meteobridge,2013-06-22 12:50:00,
2013-06-22 08:56:00,73.4,70.3,30.20,North,0,9.2,9.2,90,0.00,,,0.00,meteobridge,2013-06-22 12:56:00,
2013-06-22 09:01:00,73.6,70.2,30.20,North,0,8.3,11.4,89,0.00,,,0.00,meteobridge,2013-06-22 13:01:00,
2013-06-22 09:06:00,73.8,70.7,30.20,North,0,6.9,6.9,90,0.00,,,0.00,meteobridge,2013-06-22 13:06:00,
2013-06-22 09:11:00,73.8,70.3,30.20,North,0,10.7,10.7,89,0.00,,,0.00,meteobridge,2013-06-22 13:11:00,
2013-06-22 09:16:00,73.6,70.2,30.20,NNE,23,6.0,8.3,89,0.00,,,0.00,meteobridge,2013-06-22 13:16:00,
2013-06-22 09:21:00,73.6,70.5,30.21,East,90,7.6,7.6,90,0.00,,,0.00,meteobridge,2013-06-22 13:21:00,
2013-06-22 09:27:00,73.4,70.3,30.20,NNE,23,9.8,9.8,90,0.00,,,0.00,meteobridge,2013-06-22 13:27:00,
2013-06-22 09:32:00,73.4,70.3,30.20,North,0,8.3,8.3,90,0.00,,,0.00,meteobridge,2013-06-22 13:32:00,
2013-06-22 09:37:00,73.2,70.5,30.20,North,0,9.8,10.7,91,0.00,,,0.00,meteobridge,2013-06-22 13:37:00,
2013-06-22 09:42:00,72.9,70.3,30.20,WNW,293,6.9,9.8,92,0.00,,,0.00,meteobridge,2013-06-22 13:42:00,
2013-06-22 09:47:00,72.9,70.7,30.20,NNE,23,11.4,11.4,93,0.00,,,0.00,meteobridge,2013-06-22 13:47:00,
2013-06-22 09:52:00,73.2,71.1,30.20,North,0,6.0,7.6,93,0.00,,,0.00,meteobridge,2013-06-22 13:52:00,
2013-06-22 09:58:00,74.3,72.1,30.20,NNE,23,6.9,10.7,93,0.00,,,0.00,meteobridge,2013-06-22 13:58:00,
2013-06-22 10:03:00,75.0,72.1,30.19,North,0,9.2,9.2,91,0.00,,,0.00,meteobridge,2013-06-22 14:03:00,
2013-06-22 10:08:00,75.0,72.0,30.19,North,0,8.3,8.3,90,0.00,,,0.00,meteobridge,2013-06-22 14:08:00,
2013-06-22 10:13:00,74.8,71.8,30.19,North,0,8.3,9.8,90,0.00,,,0.00,meteobridge,2013-06-22 14:13:00,
2013-06-22 10:18:00,75.0,72.0,30.19,North,0,9.8,9.8,90,0.00,,,0.00,meteobridge,2013-06-22 14:18:00,
2013-06-22 10:23:00,76.1,72.3,30.19,NW,315,10.7,10.7,88,0.00,,,0.00,meteobridge,2013-06-22 14:23:00,
2013-06-22 10:29:00,75.9,71.4,30.19,North,0,10.7,10.7,86,0.00,,,0.00,meteobridge,2013-06-22 14:29:00,
2013-06-22 10:34:00,75.6,71.8,30.18,North,0,8.3,9.2,88,0.00,,,0.00,meteobridge,2013-06-22 14:34:00,
2013-06-22 10:39:00,75.6,71.1,30.18,North,0,8.3,11.4,86,0.00,,,0.00,meteobridge,2013-06-22 14:39:00,
2013-06-22 10:44:00,76.1,71.6,30.18,North,0,6.9,6.9,86,0.00,,,0.00,meteobridge,2013-06-22 14:44:00,
2013-06-22 10:49:00,75.7,71.2,30.19,North,0,13.6,13.6,86,0.00,,,0.00,meteobridge,2013-06-22 14:49:00,
2013-06-22 10:54:00,75.4,71.2,30.19,North,0,9.8,10.7,87,0.00,,,0.00,meteobridge,2013-06-22 14:54:00,
2013-06-22 11:00:00,75.2,71.1,30.18,North,0,12.1,12.1,87,0.00,,,0.00,meteobridge,2013-06-22 15:00:00,
2013-06-22 11:05:00,75.4,71.6,30.18,North,0,11.4,13.6,88,0.00,,,0.00,meteobridge,2013-06-22 15:05:00,
2013-06-22 11:10:00,75.7,71.6,30.19,NW,315,10.7,10.7,87,0.00,,,0.00,meteobridge,2013-06-22 15:10:00,
2013-06-22 11:15:00,76.1,71.2,30.19,NNE,23,8.3,9.2,85,0.00,,,0.00,meteobridge,2013-06-22 15:15:00,
2013-06-22 11:20:00,76.6,71.4,30.19,North,0,8.3,12.1,84,0.00,,,0.00,meteobridge,2013-06-22 15:20:00,
2013-06-22 11:25:00,77.2,71.6,30.19,NW,315,10.7,10.7,83,0.00,,,0.00,meteobridge,2013-06-22 15:25:00,
2013-06-22 11:31:00,77.0,71.4,30.19,NW,315,7.6,9.2,83,0.00,,,0.00,meteobridge,2013-06-22 15:31:00,
2013-06-22 11:36:00,78.8,71.4,30.19,North,0,10.7,10.7,78,0.00,,,0.00,meteobridge,2013-06-22 15:36:00,
2013-06-22 11:41:00,78.3,70.5,30.20,North,0,11.4,11.4,77,0.00,,,0.00,meteobridge,2013-06-22 15:41:00,
2013-06-22 11:46:00,77.5,70.9,30.19,North,0,8.3,8.3,80,0.00,,,0.00,meteobridge,2013-06-22 15:46:00,
2013-06-22 11:51:00,77.5,70.5,30.20,North,0,11.4,11.4,79,0.00,,,0.00,meteobridge,2013-06-22 15:51:00,
2013-06-22 11:56:00,77.2,70.5,30.19,NE,45,9.8,10.7,80,0.00,,,0.00,meteobridge,2013-06-22 15:56:00,
2013-06-22 12:02:00,77.5,71.6,30.19,NW,315,9.2,9.8,82,0.00,,,0.00,meteobridge,2013-06-22 16:02:00,
2013-06-22 12:07:00,77.7,71.4,30.19,North,0,5.4,8.3,81,0.00,,,0.00,meteobridge,2013-06-22 16:07:00,
2013-06-22 12:12:00,78.3,71.2,30.19,North,0,8.3,9.2,79,0.00,,,0.00,meteobridge,2013-06-22 16:12:00,
2013-06-22 12:17:00,79.2,71.8,30.19,North,0,6.9,9.2,78,0.00,,,0.00,meteobridge,2013-06-22 16:17:00,
2013-06-22 12:22:00,80.2,71.2,30.19,North,0,6.0,6.0,74,0.00,,,0.00,meteobridge,2013-06-22 16:22:00,
2013-06-22 12:27:00,80.1,71.4,30.19,NW,315,4.5,6.0,75,0.00,,,0.00,meteobridge,2013-06-22 16:27:00,
2013-06-22 12:33:00,79.7,71.1,30.19,North,0,7.6,7.6,75,0.00,,,0.00,meteobridge,2013-06-22 16:33:00,
2013-06-22 12:38:00,79.7,71.4,30.19,North,0,9.2,9.8,76,0.00,,,0.00,meteobridge,2013-06-22 16:38:00,
2013-06-22 12:43:00,80.2,71.2,30.19,NW,315,6.9,6.9,74,0.00,,,0.00,meteobridge,2013-06-22 16:43:00,
2013-06-22 12:48:00,80.6,71.1,30.19,NW,315,9.8,9.8,73,0.00,,,0.00,meteobridge,2013-06-22 16:48:00,
2013-06-22 12:53:00,78.8,70.2,30.19,North,0,10.7,12.1,75,0.00,,,0.00,meteobridge,2013-06-22 16:53:00,
2013-06-22 12:58:00,78.3,71.6,30.19,NW,315,6.0,11.4,80,0.00,,,0.00,meteobridge,2013-06-22 16:58:00,
2013-06-22 13:04:00,78.8,71.4,30.18,NW,315,7.6,8.3,78,0.00,,,0.00,meteobridge,2013-06-22 17:04:00,
2013-06-22 13:09:00,79.2,70.9,30.18,North,0,7.6,8.3,76,0.00,,,0.00,meteobridge,2013-06-22 17:09:00,
2013-06-22 13:14:00,79.5,71.2,30.18,WNW,293,8.3,10.7,76,0.00,,,0.00,meteobridge,2013-06-22 17:14:00,
2013-06-22 13:19:00,80.4,72.1,30.17,NW,315,6.0,7.6,76,0.00,,,0.00,meteobridge,2013-06-22 17:19:00,
2013-06-22 13:24:00,79.9,71.6,30.17,NW,315,10.7,10.7,76,0.00,,,0.00,meteobridge,2013-06-22 17:24:00,
2013-06-22 13:29:00,79.2,70.9,30.17,North,0,10.7,10.7,76,0.00,,,0.00,meteobridge,2013-06-22 17:29:00,
2013-06-22 13:35:00,79.5,71.6,30.17,NW,315,10.7,10.7,77,0.00,,,0.00,meteobridge,2013-06-22 17:35:00,
2013-06-22 13:40:00,80.6,71.6,30.17,West,270,6.9,6.9,74,0.00,,,0.00,meteobridge,2013-06-22 17:40:00,
2013-06-22 13:45:00,81.3,71.4,30.17,NW,315,6.9,7.6,72,0.00,,,0.00,meteobridge,2013-06-22 17:45:00,
2013-06-22 13:50:00,82.4,70.7,30.16,North,0,8.3,9.2,68,0.00,,,0.00,meteobridge,2013-06-22 17:50:00,
2013-06-22 13:55:00,82.6,70.9,30.16,NW,315,3.8,7.6,68,0.00,,,0.00,meteobridge,2013-06-22 17:55:00,
2013-06-22 14:01:00,82.8,71.6,30.16,North,0,6.0,7.6,69,0.00,,,0.00,meteobridge,2013-06-22 18:01:00,
2013-06-22 14:06:00,82.8,71.1,30.16,NW,315,11.4,11.4,68,0.00,,,0.00,meteobridge,2013-06-22 18:06:00,
2013-06-22 14:11:00,82.4,71.6,30.16,NW,315,7.6,9.2,70,0.00,,,0.00,meteobridge,2013-06-22 18:11:00,
2013-06-22 14:16:00,81.9,71.6,30.15,NW,315,9.2,12.1,71,0.00,,,0.00,meteobridge,2013-06-22 18:16:00,
2013-06-22 14:21:00,81.5,71.2,30.15,NW,315,13.0,13.0,71,0.00,,,0.00,meteobridge,2013-06-22 18:21:00,
2013-06-22 14:26:00,80.4,70.9,30.15,North,0,9.2,13.0,73,0.00,,,0.00,meteobridge,2013-06-22 18:26:00,
2013-06-22 14:32:00,80.8,70.5,30.15,NW,315,9.2,11.4,71,0.00,,,0.00,meteobridge,2013-06-22 18:32:00,
2013-06-22 14:37:00,82.4,70.0,30.14,North,0,4.5,9.8,66,0.00,,,0.00,meteobridge,2013-06-22 18:37:00,
2013-06-22 14:42:00,84.6,71.1,30.15,NW,315,5.4,6.9,64,0.00,,,0.00,meteobridge,2013-06-22 18:42:00,
2013-06-22 14:47:00,84.9,70.0,30.14,North,0,7.6,11.4,61,0.00,,,0.00,meteobridge,2013-06-22 18:47:00,
2013-06-22 14:52:00,84.2,70.7,30.14,NE,45,9.2,9.2,64,0.00,,,0.00,meteobridge,2013-06-22 18:52:00,
2013-06-22 14:57:00,83.8,70.9,30.14,North,0,18.3,18.3,65,0.00,,,0.00,meteobridge,2013-06-22 18:57:00,
2013-06-22 15:03:00,81.0,70.7,30.15,SE,135,5.4,11.4,71,0.00,,,0.00,meteobridge,2013-06-22 19:03:00,
2013-06-22 15:08:00,79.7,71.1,30.15,East,90,12.1,13.6,75,0.00,,,0.00,meteobridge,2013-06-22 19:08:00,
2013-06-22 15:13:00,78.4,71.4,30.14,NE,45,10.7,10.7,79,0.00,,,0.00,meteobridge,2013-06-22 19:13:00,
2013-06-22 15:18:00,77.9,71.2,30.14,East,90,8.3,13.0,80,0.00,,,0.00,meteobridge,2013-06-22 19:18:00,
2013-06-22 15:23:00,77.7,71.4,30.14,SE,135,6.0,6.9,81,0.00,,,0.00,meteobridge,2013-06-22 19:23:00,
2013-06-22 15:28:00,77.5,71.2,30.15,East,90,15.2,15.2,81,0.00,,,0.00,meteobridge,2013-06-22 19:28:00,
2013-06-22 15:33:00,77.5,71.6,30.14,NE,45,3.8,5.4,82,0.00,,,0.00,meteobridge,2013-06-22 19:33:00,
2013-06-22 15:39:00,77.7,71.4,30.14,NE,45,3.1,8.3,81,0.00,,,0.00,meteobridge,2013-06-22 19:39:00,
2013-06-22 15:44:00,78.3,71.6,30.14,NE,45,5.4,5.4,80,0.00,,,0.00,meteobridge,2013-06-22 19:44:00,
2013-06-22 15:49:00,78.4,71.4,30.14,ENE,68,3.8,3.8,79,0.00,,,0.00,meteobridge,2013-06-22 19:49:00,
2013-06-22 15:54:00,78.8,71.1,30.14,East,90,3.1,3.8,77,0.00,,,0.00,meteobridge,2013-06-22 19:54:00,
2013-06-22 15:59:00,78.8,71.1,30.13,East,90,4.5,6.0,77,0.00,,,0.00,meteobridge,2013-06-22 19:59:00,
2013-06-22 16:04:00,79.2,70.9,30.13,East,90,3.8,4.5,76,0.00,,,0.00,meteobridge,2013-06-22 20:04:00,
2013-06-22 16:09:00,79.3,71.1,30.13,East,90,8.3,8.3,76,0.00,,,0.00,meteobridge,2013-06-22 20:09:00,
2013-06-22 16:14:00,79.2,70.9,30.13,NE,45,6.0,6.9,76,0.00,,,0.00,meteobridge,2013-06-22 20:14:00,
2013-06-22 16:19:00,79.9,70.9,30.13,ENE,68,6.9,6.9,74,0.00,,,0.00,meteobridge,2013-06-22 20:19:00,
2013-06-22 16:25:00,80.4,70.9,30.13,NW,315,3.1,6.9,73,0.00,,,0.00,meteobridge,2013-06-22 20:25:00,
2013-06-22 16:30:00,81.7,71.4,30.14,East,90,3.1,4.5,71,0.00,,,0.00,meteobridge,2013-06-22 20:30:00,
2013-06-22 16:35:00,82.2,71.4,30.13,SE,135,3.1,4.5,70,0.00,,,0.00,meteobridge,2013-06-22 20:35:00,
2013-06-22 16:40:00,82.9,70.9,30.13,ENE,68,8.3,8.3,67,0.00,,,0.00,meteobridge,2013-06-22 20:40:00,
2013-06-22 16:45:00,81.1,70.0,30.13,SE,135,10.7,10.7,69,0.00,,,0.00,meteobridge,2013-06-22 20:45:00,
2013-06-22 16:50:00,81.0,70.7,30.13,SE,135,6.0,7.6,71,0.00,,,0.00,meteobridge,2013-06-22 20:50:00,
2013-06-22 16:56:00,81.1,70.9,30.13,East,90,6.0,6.0,71,0.00,,,0.00,meteobridge,2013-06-22 20:56:00,
2013-06-22 17:01:00,80.4,70.5,30.12,East,90,7.6,7.6,72,0.00,,,0.00,meteobridge,2013-06-22 21:01:00,
2013-06-22 17:06:00,79.9,70.0,30.12,ENE,68,6.0,6.9,72,0.00,,,0.00,meteobridge,2013-06-22 21:06:00,
2013-06-22 17:11:00,79.9,70.5,30.12,East,90,3.8,6.0,73,0.00,,,0.00,meteobridge,2013-06-22 21:11:00,
2013-06-22 17:16:00,79.9,70.5,30.12,South,180,4.5,6.9,73,0.00,,,0.00,meteobridge,2013-06-22 21:16:00,
2013-06-22 17:21:00,79.5,70.5,30.12,East,90,5.4,6.0,74,0.00,,,0.00,meteobridge,2013-06-22 21:21:00,
2013-06-22 17:27:00,79.9,70.9,30.11,East,90,6.9,6.9,74,0.00,,,0.00,meteobridge,2013-06-22 21:27:00,
2013-06-22 17:32:00,80.2,70.9,30.11,SE,135,4.5,4.5,73,0.00,,,0.00,meteobridge,2013-06-22 21:32:00,
2013-06-22 17:37:00,81.0,70.7,30.12,SW,225,1.6,3.8,71,0.00,,,0.00,meteobridge,2013-06-22 21:37:00,
2013-06-22 17:42:00,83.3,70.3,30.11,NE,45,6.9,6.9,65,0.00,,,0.00,meteobridge,2013-06-22 21:42:00,
2013-06-22 17:47:00,84.6,70.5,30.11,NE,45,4.5,5.4,63,0.00,,,0.00,meteobridge,2013-06-22 21:47:00,
2013-06-22 17:52:00,83.3,70.3,30.12,South,180,7.6,7.6,65,0.00,,,0.00,meteobridge,2013-06-22 21:52:00,
2013-06-22 17:58:00,80.8,69.3,30.12,East,90,6.0,6.9,68,0.00,,,0.00,meteobridge,2013-06-22 21:58:00,
2013-06-22 18:03:00,80.1,69.4,30.12,East,90,5.4,9.2,70,0.00,,,0.00,meteobridge,2013-06-22 22:03:00,
2013-06-22 18:08:00,80.1,70.2,30.11,NNE,23,4.5,5.4,72,0.00,,,0.00,meteobridge,2013-06-22 22:08:00,
2013-06-22 18:13:00,79.9,69.6,30.11,North,0,3.8,6.9,71,0.00,,,0.00,meteobridge,2013-06-22 22:13:00,
2013-06-22 18:18:00,80.1,70.2,30.11,North,0,3.8,3.8,72,0.00,,,0.00,meteobridge,2013-06-22 22:18:00,
2013-06-22 18:23:00,80.2,70.3,30.11,North,0,6.0,6.0,72,0.00,,,0.00,meteobridge,2013-06-22 22:23:00,
2013-06-22 18:28:00,79.9,70.9,30.11,NE,45,5.4,6.9,74,0.00,,,0.00,meteobridge,2013-06-22 22:28:00,
2013-06-22 18:33:00,79.7,70.7,30.11,North,0,6.0,6.9,74,0.00,,,0.00,meteobridge,2013-06-22 22:33:00,
2013-06-22 18:38:00,79.7,70.7,30.10,North,0,4.5,6.0,74,0.00,,,0.00,meteobridge,2013-06-22 22:38:00,
2013-06-22 18:43:00,80.2,71.2,30.10,North,0,3.8,3.8,74,0.00,,,0.00,meteobridge,2013-06-22 22:43:00,
2013-06-22 18:49:00,80.4,71.4,30.09,SE,135,2.2,2.2,74,0.00,,,0.00,meteobridge,2013-06-22 22:49:00,
2013-06-22 18:54:00,80.1,71.4,30.10,SE,135,3.8,3.8,75,0.00,,,0.00,meteobridge,2013-06-22 22:54:00,
2013-06-22 18:59:00,79.5,70.9,30.10,ESE,113,4.5,4.5,75,0.00,,,0.00,meteobridge,2013-06-22 22:59:00,
2013-06-22 19:04:00,79.7,71.4,30.10,East,90,4.5,5.4,76,0.00,,,0.00,meteobridge,2013-06-22 23:04:00,
2013-06-22 19:09:00,79.2,70.9,30.10,East,90,4.5,6.0,76,0.00,,,0.00,meteobridge,2013-06-22 23:09:00,
2013-06-22 19:14:00,78.4,71.1,30.11,East,90,5.4,5.4,78,0.00,,,0.00,meteobridge,2013-06-22 23:14:00,
2013-06-22 19:20:00,78.4,71.4,30.11,East,90,3.8,4.5,79,0.00,,,0.00,meteobridge,2013-06-22 23:20:00,
2013-06-22 19:25:00,78.1,71.1,30.11,East,90,5.4,5.4,79,0.00,,,0.00,meteobridge,2013-06-22 23:25:00,
2013-06-22 19:30:00,77.9,70.9,30.11,SE,135,3.8,3.8,79,0.00,,,0.00,meteobridge,2013-06-22 23:30:00,
2013-06-22 19:35:00,77.7,71.1,30.11,East,90,3.8,3.8,80,0.00,,,0.00,meteobridge,2013-06-22 23:35:00,
2013-06-22 19:40:00,77.5,70.9,30.11,East,90,3.1,4.5,80,0.00,,,0.00,meteobridge,2013-06-22 23:40:00,
2013-06-22 19:45:00,77.5,71.2,30.11,East,90,3.1,3.8,81,0.00,,,0.00,meteobridge,2013-06-22 23:45:00,
2013-06-22 19:51:00,77.4,71.1,30.12,East,90,3.1,3.8,81,0.00,,,0.00,meteobridge,2013-06-22 23:51:00,
2013-06-22 19:56:00,77.5,71.6,30.11,SE,135,3.1,3.1,82,0.00,,,0.00,meteobridge,2013-06-22 23:56:00,
2013-06-22 20:01:00,78.3,72.7,30.11,SE,135,1.6,2.2,83,0.00,,,0.00,meteobridge,2013-06-23 00:01:00,
2013-06-22 20:06:00,80.2,72.7,30.11,SE,135,0.7,1.6,78,0.00,,,0.00,meteobridge,2013-06-23 00:06:00,
2013-06-22 20:11:00,81.5,72.0,30.11,East,90,3.1,3.1,73,0.00,,,0.00,meteobridge,2013-06-23 00:11:00,
2013-06-22 20:16:00,80.1,71.1,30.11,East,90,3.1,3.1,74,0.00,,,0.00,meteobridge,2013-06-23 00:16:00,
2013-06-22 20:22:00,78.4,71.1,30.11,NE,45,2.2,2.2,78,0.00,,,0.00,meteobridge,2013-06-23 00:22:00,
2013-06-22 20:27:00,77.7,71.1,30.11,East,90,2.2,3.1,80,0.00,,,0.00,meteobridge,2013-06-23 00:27:00,
2013-06-22 20:32:00,77.2,71.6,30.11,SE,135,1.6,3.1,83,0.00,,,0.00,meteobridge,2013-06-23 00:32:00,
2013-06-22 20:37:00,76.6,71.8,30.11,NE,45,2.2,2.2,85,0.00,,,0.00,meteobridge,2013-06-23 00:37:00,
2013-06-22 20:42:00,76.1,71.6,30.11,SE,135,2.2,2.2,86,0.00,,,0.00,meteobridge,2013-06-23 00:42:00,
2013-06-22 20:47:00,75.7,71.6,30.11,SE,135,2.2,2.2,87,0.00,,,0.00,meteobridge,2013-06-23 00:47:00,
2013-06-22 20:53:00,75.6,71.4,30.12,East,90,1.6,2.2,87,0.00,,,0.00,meteobridge,2013-06-23 00:53:00,
2013-06-22 20:58:00,75.4,71.6,30.12,East,90,0.7,0.7,88,0.00,,,0.00,meteobridge,2013-06-23 00:58:00,
2013-06-22 21:03:00,75.4,71.6,30.12,ENE,68,2.2,2.2,88,0.00,,,0.00,meteobridge,2013-06-23 01:03:00,
2013-06-22 21:08:00,75.0,72.0,30.12,East,90,3.1,3.1,90,0.00,,,0.00,meteobridge,2013-06-23 01:08:00,
2013-06-22 21:13:00,74.8,71.8,30.12,SE,135,3.1,3.1,90,0.00,,,0.00,meteobridge,2013-06-23 01:13:00,
2013-06-22 21:18:00,74.7,71.2,30.13,SE,135,2.2,2.2,89,0.00,,,0.00,meteobridge,2013-06-23 01:18:00,
2013-06-22 21:23:00,74.7,71.2,30.13,East,90,1.6,2.2,89,0.00,,,0.00,meteobridge,2013-06-23 01:23:00,
2013-06-22 21:29:00,74.5,71.4,30.13,SE,135,1.6,2.2,90,0.00,,,0.00,meteobridge,2013-06-23 01:29:00,
2013-06-22 21:34:00,74.3,71.2,30.13,SE,135,1.6,2.2,90,0.00,,,0.00,meteobridge,2013-06-23 01:34:00,
2013-06-22 21:39:00,74.1,71.2,30.12,SE,135,2.2,2.2,91,0.00,,,0.00,meteobridge,2013-06-23 01:39:00,
2013-06-22 21:44:00,73.9,71.4,30.12,SE,135,2.2,2.2,92,0.00,,,0.00,meteobridge,2013-06-23 01:44:00,
2013-06-22 21:49:00,73.6,71.1,30.13,SE,135,1.6,2.2,92,0.00,,,0.00,meteobridge,2013-06-23 01:49:00,
2013-06-22 21:54:00,73.4,71.2,30.13,SE,135,1.6,1.6,93,0.00,,,0.00,meteobridge,2013-06-23 01:54:00,
2013-06-22 22:00:00,73.4,71.6,30.13,East,90,0.7,1.6,94,0.00,,,0.00,meteobridge,2013-06-23 02:00:00,
2013-06-22 22:05:00,73.2,71.1,30.13,East,90,1.6,1.6,93,0.00,,,0.00,meteobridge,2013-06-23 02:05:00,
2013-06-22 22:10:00,73.2,70.7,30.13,SE,135,2.2,2.2,92,0.00,,,0.00,meteobridge,2013-06-23 02:10:00,
2013-06-22 22:15:00,73.2,71.1,30.13,East,90,1.6,2.2,93,0.00,,,0.00,meteobridge,2013-06-23 02:15:00,
2013-06-22 22:20:00,73.2,71.1,30.13,SE,135,0.7,0.7,93,0.00,,,0.00,meteobridge,2013-06-23 02:20:00,
2013-06-22 22:25:00,73.2,71.1,30.14,East,90,2.2,2.2,93,0.00,,,0.00,meteobridge,2013-06-23 02:25:00,
2013-06-22 22:31:00,73.2,71.1,30.14,SE,135,2.2,2.2,93,0.00,,,0.00,meteobridge,2013-06-23 02:31:00,
2013-06-22 22:36:00,73.0,70.9,30.14,SE,135,2.2,2.2,93,0.00,,,0.00,meteobridge,2013-06-23 02:36:00,
2013-06-22 22:41:00,72.9,71.1,30.14,SE,135,2.2,3.1,94,0.00,,,0.00,meteobridge,2013-06-23 02:41:00,
2013-06-22 22:46:00,72.7,70.9,30.14,SE,135,2.2,2.2,94,0.00,,,0.00,meteobridge,2013-06-23 02:46:00,
2013-06-22 22:51:00,72.7,70.9,30.14,SE,135,1.6,3.1,94,0.00,,,0.00,meteobridge,2013-06-23 02:51:00,
2013-06-22 22:56:00,72.7,70.9,30.15,SE,135,1.6,1.6,94,0.00,,,0.00,meteobridge,2013-06-23 02:56:00,
2013-06-22 23:02:00,72.7,70.9,30.15,SE,135,1.6,1.6,94,0.00,,,0.00,meteobridge,2013-06-23 03:02:00,
2013-06-22 23:07:00,72.7,70.9,30.15,SE,135,3.1,3.1,94,0.00,,,0.00,meteobridge,2013-06-23 03:07:00,
2013-06-22 23:12:00,72.7,71.2,30.15,SE,135,2.2,2.2,95,0.00,,,0.00,meteobridge,2013-06-23 03:12:00,
2013-06-22 23:17:00,72.7,71.2,30.15,SE,135,2.2,3.1,95,0.00,,,0.00,meteobridge,2013-06-23 03:17:00,
2013-06-22 23:22:00,72.7,71.2,30.16,SE,135,2.2,2.2,95,0.00,,,0.00,meteobridge,2013-06-23 03:22:00,
2013-06-22 23:27:00,72.7,71.2,30.16,East,90,2.2,3.1,95,0.00,,,0.00,meteobridge,2013-06-23 03:27:00,
2013-06-22 23:33:00,72.5,71.1,30.16,SE,135,3.1,3.1,95,0.00,,,0.00,meteobridge,2013-06-23 03:33:00,
2013-06-22 23:38:00,72.5,71.1,30.16,East,90,3.1,3.1,95,0.00,,,0.00,meteobridge,2013-06-23 03:38:00,
2013-06-22 23:43:00,72.5,71.1,30.16,SE,135,3.1,3.1,95,0.00,,,0.00,meteobridge,2013-06-23 03:43:00,
2013-06-22 23:48:00,72.5,71.2,30.16,East,90,3.1,3.1,96,0.00,,,0.00,meteobridge,2013-06-23 03:48:00,
2013-06-22 23:53:00,72.5,71.2,30.16,SE,135,1.6,2.2,96,0.00,,,0.00,meteobridge,2013-06-23 03:53:00,
2013-06-22 23:58:00,72.5,71.2,30.16,SE,135,0.7,2.2,96,0.00,,,0.00,meteobridge,2013-06-23 03:58:00,